EW6655 Weather Reports


time (UTC)temp
C
wind
direction
speed
KPH
gust
KPH
rain 1hr
cm
rain 24hr
cm
rain mn
cm
humidity
%
barometer
mb
20200217001541 4 273 17.7 43.5 0.05 1.07 0.05 92 1009.2
20200217000026 4 269 17.7 32.2 0.05 1.07 0.05 93 1008.5
20200216234515 4 234 16.1 37.0 0.08 1.04 0.03 93 1009.0
20200216233021 5 269 22.5 38.6 0.08 1.02 0.00 92 1009.0
20200216231554 5 244 17.7 30.6 0.10 1.02 0.00 93 1007.7
20200216230041 5 263 27.4 48.3 0.15 1.02 0.00 93 1007.7
20200216224512 5 269 19.3 48.3 0.13 0.97 0.61 93 1008.1
20200216221502 5 267 12.9 37.0 0.18 0.91 0.56 93 1007.7
20200216220010 5 219 14.5 35.4 0.18 0.86 0.51 93 1007.6
20200216214651 5 315 17.7 46.7 0.18 0.84 0.48 92 1007.5
20200216213003 6 270 32.2 53.1 0.18 0.79 0.43 92 1007.4
20200216211602 6 265 27.4 46.7 0.18 0.71 0.38 92 1006.8
20200216210038 6 268 29.0 54.7 0.25 0.69 0.33 92 1006.6
20200216204544 6 279 27.4 54.7 0.30 0.66 0.30 92 1006.4
20200216203022 6 282 27.4 48.3 0.25 0.61 0.25 92 1006.1
20200216201548 7 313 20.9 41.8 0.20 0.56 0.20 90 1005.9
20200216200040 10 315 29.0 49.9 0.05 0.41 0.05 79 1005.0
20200216194507 13 223 29.0 53.1 0.00 0.36 0.00 70 1003.0
20200216193016 12 225 29.0 64.4 0.00 0.36 0.00 70 1002.8
20200216191512 12 207 29.0 54.7 0.00 0.36 0.00 70 1002.4
20200216190005 12 193 19.3 48.3 0.00 0.36 0.00 69 1002.1
20200216184509 13 198 22.5 59.5 0.00 0.36 0.00 68 1002.0
20200216183008 12 178 27.4 78.9 0.00 0.36 0.00 69 1001.8
20200216181503 12 245 20.9 45.1 0.00 0.36 0.00 69 1002.0
20200216180003 12 211 30.6 66.0 0.00 0.36 0.00 69 1002.7
20200216174619 12 228 25.7 61.2 0.00 0.36 0.00 68 1002.2
20200216173148 12 233 20.9 56.3 0.00 0.36 0.00 68 1002.6
20200216171757 12 259 20.9 48.3 0.00 0.36 0.00 68 1002.9
20200216170203 12 210 27.4 51.5 0.00 0.36 0.00 68 1003.1
20200216164718 12 212 33.8 57.9 0.00 0.36 0.00 67 1003.0
20200216163143 12 212 25.7 64.4 0.00 0.36 0.00 67 1002.8
20200216161643 12 254 30.6 57.9 0.00 0.36 0.00 67 1002.4
20200216160110 13 243 29.0 53.1 0.00 0.36 0.00 67 1002.5
20200216154636 13 242 27.4 77.2 0.00 0.36 0.00 66 1002.1
20200216153117 13 279 29.0 49.9 0.00 0.36 0.00 66 1002.5
20200216151713 13 246 25.7 54.7 0.00 0.36 0.00 66 1002.7
20200216150133 13 263 24.1 54.7 0.00 0.36 0.00 66 1002.6
20200216144654 13 257 27.4 57.9 0.00 0.36 0.00 67 1002.6
20200216143100 13 232 32.2 57.9 0.00 0.36 0.00 68 1002.8
20200216141622 13 183 25.7 56.3 0.00 0.36 0.00 71 1003.3
20200216140106 13 242 27.4 66.0 0.00 0.36 0.00 73 1002.9
20200216130147 12 205 24.1 54.7 0.00 0.36 0.36 75 1003.2
20200216124640 12 241 30.6 61.2 0.00 0.36 0.36 74 1003.3
20200216123106 12 242 29.0 59.5 0.00 0.36 0.36 73 1003.4
20200216121636 12 271 25.7 67.6 0.00 0.36 0.36 73 1004.0
20200216120123 12 220 24.1 57.9 0.00 0.36 0.36 74 1004.8
20200216114543 12 248 29.0 59.5 0.00 0.36 0.36 73 1004.9
20200216113046 12 268 27.4 57.9 0.00 0.36 0.36 73 1004.9
20200216111638 11 189 19.3 48.3 0.00 0.36 0.36 75 1005.5
20200216110111 11 238 20.9 51.5 0.00 0.36 0.36 77 1005.6
20200216104623 10 304 29.0 56.3 0.00 0.36 0.36 77 1005.1
20200216103127 10 182 35.4 54.7 0.00 0.36 0.36 78 1005.5
20200216101542 10 209 33.8 53.1 0.00 0.36 0.36 79 1005.3
20200216100027 10 228 22.5 69.2 0.00 0.36 0.36 79 1005.3
20200216094533 10 249 24.1 61.2 0.03 0.36 0.36 79 1005.8
20200216093029 10 218 32.2 54.7 0.03 0.36 0.36 81 1005.8
20200216090036 9 238 24.1 74.0 0.05 0.36 0.36 88 1005.9
20200216084625 8 267 22.5 51.5 0.03 0.33 0.33 89 1006.2
20200216083019 8 261 20.9 48.3 0.03 0.33 0.33 89 1006.7
20200216081530 8 217 24.1 78.9 0.03 0.33 0.33 89 1006.4
20200216080037 9 222 25.7 49.9 0.00 0.30 0.30 89 1006.7
20200216074513 9 241 25.7 59.5 0.00 0.30 0.30 89 1006.7
20200216073018 8 221 32.2 62.8 0.03 0.30 0.30 90 1006.8
20200216071530 8 182 27.4 69.2 0.05 0.30 0.30 90 1007.2
20200216070023 9 220 24.1 61.2 0.08 0.30 0.30 91 1007.5
20200216064505 9 244 25.7 56.3 0.10 0.30 0.30 90 1007.2
20200216063032 8 194 29.0 53.1 0.13 0.28 0.28 92 1007.4
20200216061503 8 259 24.1 72.4 0.10 0.25 0.25 93 1007.6
20200216060216 8 238 29.0 61.2 0.10 0.23 0.23 93 1007.7
20200216054631 8 193 24.1 53.1 0.10 0.20 0.20 93 1007.9
20200216053153 8 232 25.7 49.9 0.08 0.15 0.15 93 1008.2
20200216051616 8 258 20.9 43.5 0.13 0.15 0.15 93 1008.1
20200216050105 8 181 22.5 56.3 0.10 0.13 0.13 93 1008.3
20200216044638 8 190 24.1 48.3 0.08 0.10 0.10 92 1008.4
20200216043129 8 238 17.7 57.9 0.05 0.08 0.08 90 1009.0
20200216041606 8 196 19.3 45.1 0.00 0.03 0.03 87 1009.4
20200216040106 9 243 19.3 43.5 0.00 0.03 0.03 84 1009.3
20200216034556 10 230 24.1 54.7 0.00 0.03 0.03 80 1009.4
20200216033044 10 241 25.7 43.5 0.00 0.03 0.03 79 1009.4
20200216031623 9 235 19.3 46.7 0.00 0.03 0.03 79 1009.6
20200216030038 9 254 20.9 46.7 0.00 0.03 0.03 79 1010.0
20200216024638 9 197 20.9 40.2 0.00 0.03 0.03 79 1010.2
20200216023116 9 223 24.1 66.0 0.00 0.03 0.03 80 1010.2
20200216021607 9 269 20.9 56.3 0.00 0.03 0.03 80 1010.5
20200216020035 9 210 22.5 45.1 0.03 0.03 0.03 80 1010.4
20200216014611 9 234 20.9 54.7 0.03 0.03 0.03 81 1010.6
20200216013129 8 304 20.9 53.1 0.03 0.03 0.03 82 1010.7
20200216011544 8 195 20.9 38.6 0.03 0.03 0.03 82 1010.6
20200216010042 8 238 20.9 43.5 0.00 0.00 0.00 83 1011.0
20200216004549 8 220 20.9 45.1 0.00 0.00 0.00 84 1011.0
20200216003025 8 240 22.5 40.2 0.00 0.00 0.00 84 1010.9